52OK weather

Tulsa Security Heliport
Tulsa, Oklahoma, United States

Public forecast

Using degrees Fahrenheit for public forecast. Weather courtesy of forecast.io.

METAR (pilot weather report)

Closest report is Tulsa International Airport, 4.8 nm (8.9 km) NE. Retrieved 2019/04/20 03:53 UTC (22 minutes ago):

KTUL 200353Z 31003KT 10SM CLR 11/03 A3000 RMK AO2 SLP157 T01060028

TAF (pilot weather forecast)

Forecast is more than 12 hours old.

Closest forecast is Tulsa International Airport, 4.8 nm (8.9 km) NE. Retrieved 2019/04/19 00:22 UTC (1 day ago):

TAF KTUL 192320Z 2000/2024 34014KT P6SM SKC FM200100 VRB04KT P6SM SKC FM201600 19010KT P6SM SKC